sensor_id;sensor_type;location;lat;lon;timestamp;pressure;altitude;pressure_sealevel;temperature;humidity
73870;BME280;64924;42.140;24.762;2023-04-03T00:00:50;98961.03;;;15.16;36.47
73870;BME280;64924;42.140;24.762;2023-04-03T00:03:16;98963.13;;;15.25;36.61
73870;BME280;64924;42.140;24.762;2023-04-03T00:05:42;98951.34;;;15.25;36.29
73870;BME280;64924;42.140;24.762;2023-04-03T00:08:07;98943.28;;;15.18;36.66
73870;BME280;64924;42.140;24.762;2023-04-03T00:10:35;98940.94;;;15.10;36.62
73870;BME280;64924;42.140;24.762;2023-04-03T00:13:02;98964.97;;;15.36;36.38
73870;BME280;64924;42.140;24.762;2023-04-03T00:15:27;98971.63;;;15.41;36.16
73870;BME280;64924;42.140;24.762;2023-04-03T00:17:53;98971.44;;;15.30;36.33
73870;BME280;64924;42.140;24.762;2023-04-03T00:20:18;98966.88;;;14.96;36.67
73870;BME280;64924;42.140;24.762;2023-04-03T00:22:44;98975.44;;;14.99;36.63
73870;BME280;64924;42.140;24.762;2023-04-03T00:25:10;98962.59;;;15.00;36.45
73870;BME280;64924;42.140;24.762;2023-04-03T00:27:39;98963.31;;;15.07;36.36
73870;BME280;64924;42.140;24.762;2023-04-03T00:30:07;98966.16;;;15.00;36.51
73870;BME280;64924;42.140;24.762;2023-04-03T00:32:32;98969.25;;;15.04;36.74
73870;BME280;64924;42.140;24.762;2023-04-03T00:34:58;98935.84;;;14.90;36.72
73870;BME280;64924;42.140;24.762;2023-04-03T00:37:24;98972.63;;;15.23;36.39
73870;BME280;64924;42.140;24.762;2023-04-03T00:39:49;98962.53;;;15.23;36.24
73870;BME280;64924;42.140;24.762;2023-04-03T00:42:15;98973.41;;;15.18;36.42
73870;BME280;64924;42.140;24.762;2023-04-03T00:47:08;98970.00;;;15.28;36.19
73870;BME280;64924;42.140;24.762;2023-04-03T00:49:37;98967.28;;;15.28;37.21
73870;BME280;64924;42.140;24.762;2023-04-03T00:52:05;98972.09;;;15.09;37.08
73870;BME280;64924;42.140;24.762;2023-04-03T00:54:34;98973.41;;;15.18;37.11
73870;BME280;64924;42.140;24.762;2023-04-03T00:57:01;98976.03;;;15.13;36.90
73870;BME280;64924;42.140;24.762;2023-04-03T00:59:32;98968.50;;;15.20;36.89
73870;BME280;64924;42.140;24.762;2023-04-03T01:01:59;98972.72;;;14.88;37.12
73870;BME280;64924;42.140;24.762;2023-04-03T01:07:04;98936.19;;;14.42;37.75
73870;BME280;64924;42.140;24.762;2023-04-03T01:09:31;98966.94;;;14.49;38.00
73870;BME280;64924;42.140;24.762;2023-04-03T01:12:16;98968.50;;;14.68;37.93
73870;BME280;64924;42.140;24.762;2023-04-03T01:14:46;98970.97;;;14.58;37.92
73870;BME280;64924;42.140;24.762;2023-04-03T01:17:32;98959.56;;;14.85;37.67
73870;BME280;64924;42.140;24.762;2023-04-03T01:25:38;98955.66;;;14.69;37.57
73870;BME280;64924;42.140;24.762;2023-04-03T01:28:05;98960.75;;;14.77;37.79
73870;BME280;64924;42.140;24.762;2023-04-03T01:30:34;98954.47;;;14.77;37.75
73870;BME280;64924;42.140;24.762;2023-04-03T01:33:01;98963.94;;;14.86;38.05
73870;BME280;64924;42.140;24.762;2023-04-03T01:35:27;98956.84;;;14.61;38.50
73870;BME280;64924;42.140;24.762;2023-04-03T01:37:52;98949.59;;;14.55;39.24
73870;BME280;64924;42.140;24.762;2023-04-03T01:40:18;98950.81;;;14.48;38.95
73870;BME280;64924;42.140;24.762;2023-04-03T01:42:44;98912.16;;;14.21;39.01
73870;BME280;64924;42.140;24.762;2023-04-03T01:45:10;98967.22;;;14.48;38.98
73870;BME280;64924;42.140;24.762;2023-04-03T01:47:36;98932.13;;;14.33;38.72
73870;BME280;64924;42.140;24.762;2023-04-03T01:50:02;98974.91;;;14.62;38.33
73870;BME280;64924;42.140;24.762;2023-04-03T01:52:27;98977.03;;;14.60;38.65
73870;BME280;64924;42.140;24.762;2023-04-03T01:54:53;98930.72;;;14.42;38.56
73870;BME280;64924;42.140;24.762;2023-04-03T01:57:18;98983.09;;;14.62;38.65
73870;BME280;64924;42.140;24.762;2023-04-03T01:59:44;98972.56;;;14.43;38.68
73870;BME280;64924;42.140;24.762;2023-04-03T02:02:10;98965.97;;;14.32;39.33
73870;BME280;64924;42.140;24.762;2023-04-03T02:04:37;98969.19;;;14.29;39.39
73870;BME280;64924;42.140;24.762;2023-04-03T02:07:03;98966.78;;;14.21;39.24
73870;BME280;64924;42.140;24.762;2023-04-03T02:09:29;98988.53;;;14.27;39.41
73870;BME280;64924;42.140;24.762;2023-04-03T02:11:54;98970.38;;;14.10;39.58
73870;BME280;64924;42.140;24.762;2023-04-03T02:14:20;98975.31;;;14.13;39.29
73870;BME280;64924;42.140;24.762;2023-04-03T02:16:47;98957.19;;;14.07;39.57
73870;BME280;64924;42.140;24.762;2023-04-03T02:19:12;98936.13;;;13.95;39.48
73870;BME280;64924;42.140;24.762;2023-04-03T02:21:38;98978.66;;;14.03;39.27
73870;BME280;64924;42.140;24.762;2023-04-03T02:24:03;98936.22;;;13.77;39.23
73870;BME280;64924;42.140;24.762;2023-04-03T02:26:29;98974.41;;;14.07;39.25
73870;BME280;64924;42.140;24.762;2023-04-03T02:28:55;98977.97;;;14.08;39.13
73870;BME280;64924;42.140;24.762;2023-04-03T02:31:20;98980.44;;;13.97;39.37
73870;BME280;64924;42.140;24.762;2023-04-03T02:33:46;98972.34;;;13.91;39.55
73870;BME280;64924;42.140;24.762;2023-04-03T02:36:11;98974.00;;;13.92;39.41
73870;BME280;64924;42.140;24.762;2023-04-03T02:38:37;98980.84;;;13.71;39.86
73870;BME280;64924;42.140;24.762;2023-04-03T02:41:04;98971.13;;;13.87;39.84
73870;BME280;64924;42.140;24.762;2023-04-03T02:43:30;98985.28;;;13.95;39.50
73870;BME280;64924;42.140;24.762;2023-04-03T02:45:56;98979.03;;;14.07;39.36
73870;BME280;64924;42.140;24.762;2023-04-03T02:48:22;98979.63;;;14.09;39.78
73870;BME280;64924;42.140;24.762;2023-04-03T02:50:47;98966.19;;;13.95;39.47
73870;BME280;64924;42.140;24.762;2023-04-03T02:53:13;98978.50;;;13.86;39.40
73870;BME280;64924;42.140;24.762;2023-04-03T02:55:38;98965.66;;;13.45;40.01
73870;BME280;64924;42.140;24.762;2023-04-03T02:58:04;98960.06;;;13.40;40.36
73870;BME280;64924;42.140;24.762;2023-04-03T03:00:30;98983.16;;;13.56;40.40
73870;BME280;64924;42.140;24.762;2023-04-03T03:02:55;98964.78;;;13.63;40.44
73870;BME280;64924;42.140;24.762;2023-04-03T03:05:21;98930.47;;;13.55;40.58
73870;BME280;64924;42.140;24.762;2023-04-03T03:07:47;98960.31;;;13.80;40.46
73870;BME280;64924;42.140;24.762;2023-04-03T03:10:12;98963.16;;;13.74;40.46
73870;BME280;64924;42.140;24.762;2023-04-03T03:12:38;98937.69;;;13.50;40.70
73870;BME280;64924;42.140;24.762;2023-04-03T03:15:04;98942.69;;;13.53;40.73
73870;BME280;64924;42.140;24.762;2023-04-03T03:17:29;98945.50;;;13.46;41.06
73870;BME280;64924;42.140;24.762;2023-04-03T03:19:55;98944.91;;;13.44;41.05
73870;BME280;64924;42.140;24.762;2023-04-03T03:22:20;98945.63;;;13.51;40.98
73870;BME280;64924;42.140;24.762;2023-04-03T03:24:46;98942.34;;;13.61;40.99
73870;BME280;64924;42.140;24.762;2023-04-03T03:27:11;98939.59;;;13.49;41.00
73870;BME280;64924;42.140;24.762;2023-04-03T03:29:37;98941.47;;;13.49;40.97
73870;BME280;64924;42.140;24.762;2023-04-03T03:32:03;98936.88;;;13.19;42.22
73870;BME280;64924;42.140;24.762;2023-04-03T03:34:28;98935.34;;;13.23;41.89
73870;BME280;64924;42.140;24.762;2023-04-03T03:36:54;98941.09;;;13.33;41.90
73870;BME280;64924;42.140;24.762;2023-04-03T03:39:20;98893.50;;;13.11;41.48
73870;BME280;64924;42.140;24.762;2023-04-03T03:41:45;98922.91;;;13.27;41.64
73870;BME280;64924;42.140;24.762;2023-04-03T03:44:11;98945.25;;;13.36;41.41
73870;BME280;64924;42.140;24.762;2023-04-03T03:46:36;98942.53;;;13.36;41.54
73870;BME280;64924;42.140;24.762;2023-04-03T03:49:02;98950.59;;;13.43;41.50
73870;BME280;64924;42.140;24.762;2023-04-03T03:51:27;98956.50;;;13.39;41.85
73870;BME280;64924;42.140;24.762;2023-04-03T03:53:53;98955.91;;;13.37;41.27
73870;BME280;64924;42.140;24.762;2023-04-03T03:56:18;98943.75;;;13.22;41.71
73870;BME280;64924;42.140;24.762;2023-04-03T03:58:44;98948.50;;;13.08;41.95
73870;BME280;64924;42.140;24.762;2023-04-03T04:01:09;98963.53;;;12.99;42.16
73870;BME280;64924;42.140;24.762;2023-04-03T04:03:34;98961.94;;;12.91;42.42
73870;BME280;64924;42.140;24.762;2023-04-03T04:06:00;98954.16;;;12.77;42.60
73870;BME280;64924;42.140;24.762;2023-04-03T04:08:26;98980.56;;;12.76;42.93
73870;BME280;64924;42.140;24.762;2023-04-03T04:10:51;98945.03;;;12.64;42.88
73870;BME280;64924;42.140;24.762;2023-04-03T04:13:17;98974.00;;;12.84;42.67
73870;BME280;64924;42.140;24.762;2023-04-03T04:15:43;98977.75;;;13.01;42.56
73870;BME280;64924;42.140;24.762;2023-04-03T04:18:08;98973.44;;;13.12;42.06
73870;BME280;64924;42.140;24.762;2023-04-03T04:20:34;98977.19;;;13.17;41.98
73870;BME280;64924;42.140;24.762;2023-04-03T04:22:59;98988.31;;;13.16;42.04
73870;BME280;64924;42.140;24.762;2023-04-03T04:25:25;98992.91;;;13.15;41.61
73870;BME280;64924;42.140;24.762;2023-04-03T04:27:50;98988.00;;;13.24;41.75
73870;BME280;64924;42.140;24.762;2023-04-03T04:30:16;99002.78;;;13.34;41.40
73870;BME280;64924;42.140;24.762;2023-04-03T04:32:41;98988.19;;;13.41;41.37
73870;BME280;64924;42.140;24.762;2023-04-03T04:35:07;98994.91;;;13.56;41.15
73870;BME280;64924;42.140;24.762;2023-04-03T04:37:33;99004.13;;;13.74;40.61
73870;BME280;64924;42.140;24.762;2023-04-03T04:39:58;98958.66;;;13.79;40.68
73870;BME280;64924;42.140;24.762;2023-04-03T04:42:24;99004.34;;;14.37;39.85
73870;BME280;64924;42.140;24.762;2023-04-03T04:44:49;98960.97;;;14.05;39.73
73870;BME280;64924;42.140;24.762;2023-04-03T04:47:16;98987.31;;;14.12;40.08
73870;BME280;64924;42.140;24.762;2023-04-03T04:49:41;99000.41;;;14.21;40.14
73870;BME280;64924;42.140;24.762;2023-04-03T04:52:07;99001.78;;;14.42;39.95
73870;BME280;64924;42.140;24.762;2023-04-03T04:54:32;99003.44;;;14.78;39.36
73870;BME280;64924;42.140;24.762;2023-04-03T04:56:58;99003.19;;;15.31;38.31
73870;BME280;64924;42.140;24.762;2023-04-03T04:59:24;99004.41;;;15.64;37.16
73870;BME280;64924;42.140;24.762;2023-04-03T05:01:49;99012.19;;;15.15;37.58
73870;BME280;64924;42.140;24.762;2023-04-03T05:04:15;99024.84;;;14.69;38.65
73870;BME280;64924;42.140;24.762;2023-04-03T05:06:41;99016.56;;;13.69;40.91
73870;BME280;64924;42.140;24.762;2023-04-03T05:09:06;99029.13;;;13.41;41.87
73870;BME280;64924;42.140;24.762;2023-04-03T05:11:32;99014.31;;;13.18;42.32
73870;BME280;64924;42.140;24.762;2023-04-03T05:13:57;99027.47;;;13.21;43.04
73870;BME280;64924;42.140;24.762;2023-04-03T05:16:23;99010.28;;;13.21;42.96
73870;BME280;64924;42.140;24.762;2023-04-03T05:18:48;99024.19;;;13.13;43.52
73870;BME280;64924;42.140;24.762;2023-04-03T05:21:14;99020.22;;;13.33;42.96
73870;BME280;64924;42.140;24.762;2023-04-03T05:23:39;99015.66;;;13.27;42.98
73870;BME280;64924;42.140;24.762;2023-04-03T05:26:05;99030.94;;;13.10;42.82
73870;BME280;64924;42.140;24.762;2023-04-03T05:28:31;99049.75;;;13.36;42.03
73870;BME280;64924;42.140;24.762;2023-04-03T05:30:58;99033.84;;;13.33;42.45
73870;BME280;64924;42.140;24.762;2023-04-03T05:33:24;99041.91;;;13.58;41.65
73870;BME280;64924;42.140;24.762;2023-04-03T05:35:52;99047.09;;;13.78;41.11
73870;BME280;64924;42.140;24.762;2023-04-03T05:38:17;99042.97;;;13.87;40.75
73870;BME280;64924;42.140;24.762;2023-04-03T05:40:43;99039.69;;;13.97;40.49
73870;BME280;64924;42.140;24.762;2023-04-03T05:43:09;99037.44;;;13.76;40.45
73870;BME280;64924;42.140;24.762;2023-04-03T05:45:34;99051.44;;;13.97;40.20
73870;BME280;64924;42.140;24.762;2023-04-03T05:48:00;99062.31;;;13.86;40.37
73870;BME280;64924;42.140;24.762;2023-04-03T05:50:25;99044.72;;;13.82;40.18
73870;BME280;64924;42.140;24.762;2023-04-03T05:52:52;99057.28;;;14.01;39.95
73870;BME280;64924;42.140;24.762;2023-04-03T05:55:20;99012.88;;;13.76;40.01
73870;BME280;64924;42.140;24.762;2023-04-03T05:57:46;99065.72;;;14.11;40.19
73870;BME280;64924;42.140;24.762;2023-04-03T06:00:15;99048.38;;;14.17;39.77
73870;BME280;64924;42.140;24.762;2023-04-03T06:02:41;99047.78;;;14.45;39.45
73870;BME280;64924;42.140;24.762;2023-04-03T06:05:08;99057.19;;;14.73;39.11
73870;BME280;64924;42.140;24.762;2023-04-03T06:07:34;99048.50;;;14.64;38.93
73870;BME280;64924;42.140;24.762;2023-04-03T06:10:00;99047.19;;;14.66;38.91
73870;BME280;64924;42.140;24.762;2023-04-03T06:12:26;99058.25;;;14.83;38.69
73870;BME280;64924;42.140;24.762;2023-04-03T06:14:54;99019.56;;;14.33;39.10
73870;BME280;64924;42.140;24.762;2023-04-03T06:17:19;99052.88;;;14.42;39.38
73870;BME280;64924;42.140;24.762;2023-04-03T06:19:45;99062.44;;;14.32;39.67
73870;BME280;64924;42.140;24.762;2023-04-03T06:22:11;99067.13;;;14.55;39.76
73870;BME280;64924;42.140;24.762;2023-04-03T06:24:37;99052.28;;;14.51;39.57
73870;BME280;64924;42.140;24.762;2023-04-03T06:27:03;99062.50;;;14.56;39.90
73870;BME280;64924;42.140;24.762;2023-04-03T06:29:28;99067.03;;;14.62;39.42
73870;BME280;64924;42.140;24.762;2023-04-03T06:31:54;99048.63;;;14.81;39.05
73870;BME280;64924;42.140;24.762;2023-04-03T06:34:19;99016.03;;;14.44;39.44
73870;BME280;64924;42.140;24.762;2023-04-03T06:36:45;99041.00;;;14.71;39.20
73870;BME280;64924;42.140;24.762;2023-04-03T06:39:18;99053.03;;;14.82;39.42
73870;BME280;64924;42.140;24.762;2023-04-03T06:41:48;99042.44;;;14.74;39.42
73870;BME280;64924;42.140;24.762;2023-04-03T06:44:14;99052.63;;;14.90;38.89
73870;BME280;64924;42.140;24.762;2023-04-03T06:46:42;99055.72;;;15.17;38.63
73870;BME280;64924;42.140;24.762;2023-04-03T06:49:08;99019.50;;;15.26;38.23
73870;BME280;64924;42.140;24.762;2023-04-03T06:51:35;99073.63;;;16.16;38.13
73870;BME280;64924;42.140;24.762;2023-04-03T06:54:01;99076.00;;;16.75;36.11
73870;BME280;64924;42.140;24.762;2023-04-03T06:56:28;99039.56;;;16.96;34.83
73870;BME280;64924;42.140;24.762;2023-04-03T06:58:54;99038.63;;;17.07;34.53
73870;BME280;64924;42.140;24.762;2023-04-03T07:01:23;99067.44;;;17.26;34.03
73870;BME280;64924;42.140;24.762;2023-04-03T07:03:50;99052.09;;;17.69;32.96
73870;BME280;64924;42.140;24.762;2023-04-03T07:06:17;99075.88;;;17.85;32.70
73870;BME280;64924;42.140;24.762;2023-04-03T07:08:43;99063.47;;;18.04;32.64
73870;BME280;64924;42.140;24.762;2023-04-03T07:11:11;99070.03;;;18.30;31.78
73870;BME280;64924;42.140;24.762;2023-04-03T07:13:37;99062.25;;;18.49;31.51
73870;BME280;64924;42.140;24.762;2023-04-03T07:16:03;99067.66;;;18.71;31.50
73870;BME280;64924;42.140;24.762;2023-04-03T07:18:31;99073.47;;;18.75;31.37
73870;BME280;64924;42.140;24.762;2023-04-03T07:20:57;99070.38;;;18.66;31.23
73870;BME280;64924;42.140;24.762;2023-04-03T07:23:23;99064.00;;;18.60;31.42
73870;BME280;64924;42.140;24.762;2023-04-03T07:25:51;99019.66;;;18.25;31.81
73870;BME280;64924;42.140;24.762;2023-04-03T07:28:18;99052.72;;;18.30;32.08
73870;BME280;64924;42.140;24.762;2023-04-03T07:30:45;99041.47;;;18.04;32.32
73870;BME280;64924;42.140;24.762;2023-04-03T07:33:13;99046.34;;;17.97;32.80
73870;BME280;64924;42.140;24.762;2023-04-03T07:35:39;99021.34;;;17.72;32.71
73870;BME280;64924;42.140;24.762;2023-04-03T07:38:06;99053.44;;;17.93;32.83
73870;BME280;64924;42.140;24.762;2023-04-03T07:40:32;99052.81;;;17.86;32.83
73870;BME280;64924;42.140;24.762;2023-04-03T07:42:58;99051.06;;;17.75;33.33
73870;BME280;64924;42.140;24.762;2023-04-03T07:45:24;99048.25;;;17.70;33.19
73870;BME280;64924;42.140;24.762;2023-04-03T07:47:50;99040.22;;;17.47;33.46
73870;BME280;64924;42.140;24.762;2023-04-03T07:50:16;99057.72;;;17.19;33.68
73870;BME280;64924;42.140;24.762;2023-04-03T07:52:42;99053.72;;;17.26;33.49
73870;BME280;64924;42.140;24.762;2023-04-03T07:55:08;99052.44;;;17.34;33.50
73870;BME280;64924;42.140;24.762;2023-04-03T07:57:33;99041.28;;;17.41;33.07
73870;BME280;64924;42.140;24.762;2023-04-03T07:59:59;99009.00;;;17.09;33.46
73870;BME280;64924;42.140;24.762;2023-04-03T08:02:24;99038.00;;;17.22;33.05
73870;BME280;64924;42.140;24.762;2023-04-03T08:04:50;99039.03;;;17.37;33.28
73870;BME280;64924;42.140;24.762;2023-04-03T08:07:16;99002.63;;;17.25;32.79
73870;BME280;64924;42.140;24.762;2023-04-03T08:09:41;99041.28;;;17.41;33.11
73870;BME280;64924;42.140;24.762;2023-04-03T08:12:07;99030.53;;;17.61;32.80
73870;BME280;64924;42.140;24.762;2023-04-03T08:14:32;99036.59;;;17.63;33.13
73870;BME280;64924;42.140;24.762;2023-04-03T08:17:00;98990.19;;;17.40;33.17
73870;BME280;64924;42.140;24.762;2023-04-03T08:19:26;99031.91;;;17.85;32.62
73870;BME280;64924;42.140;24.762;2023-04-03T08:21:51;99016.78;;;17.83;32.70
73870;BME280;64924;42.140;24.762;2023-04-03T08:24:17;99004.13;;;17.60;32.66
73870;BME280;64924;42.140;24.762;2023-04-03T08:26:42;99022.78;;;17.58;33.13
73870;BME280;64924;42.140;24.762;2023-04-03T08:29:08;99017.97;;;17.43;33.55
73870;BME280;64924;42.140;24.762;2023-04-03T08:31:33;98985.44;;;16.91;34.09
73870;BME280;64924;42.140;24.762;2023-04-03T08:33:59;99015.63;;;16.75;34.99
73870;BME280;64924;42.140;24.762;2023-04-03T08:36:26;99023.94;;;16.80;34.88
73870;BME280;64924;42.140;24.762;2023-04-03T08:38:53;99003.53;;;16.70;34.99
73870;BME280;64924;42.140;24.762;2023-04-03T08:46:43;99005.84;;;16.45;36.12
73870;BME280;64924;42.140;24.762;2023-04-03T08:49:37;98992.50;;;16.32;36.39
73870;BME280;64924;42.140;24.762;2023-04-03T08:52:10;98990.81;;;16.14;37.04
73870;BME280;64924;42.140;24.762;2023-04-03T08:54:56;98975.13;;;16.26;36.60
73870;BME280;64924;42.140;24.762;2023-04-03T08:57:32;98986.41;;;16.13;37.06
73870;BME280;64924;42.140;24.762;2023-04-03T09:00:03;98977.41;;;16.01;37.50
73870;BME280;64924;42.140;24.762;2023-04-03T09:02:40;98988.22;;;16.08;37.92
73870;BME280;64924;42.140;24.762;2023-04-03T09:05:20;98992.53;;;16.03;38.28
73870;BME280;64924;42.140;24.762;2023-04-03T09:08:01;98988.56;;;16.11;38.25
73870;BME280;64924;42.140;24.762;2023-04-03T09:10:29;98980.75;;;16.03;39.26
73870;BME280;64924;42.140;24.762;2023-04-03T09:13:18;98991.88;;;16.13;39.21
73870;BME280;64924;42.140;24.762;2023-04-03T09:15:47;98996.88;;;15.71;40.09
73870;BME280;64924;42.140;24.762;2023-04-03T09:18:15;98974.78;;;15.61;40.74
73870;BME280;64924;42.140;24.762;2023-04-03T09:26:06;98981.59;;;15.58;39.54
73870;BME280;64924;42.140;24.762;2023-04-03T09:28:38;98975.91;;;15.48;39.10
73870;BME280;64924;42.140;24.762;2023-04-03T09:31:23;98977.03;;;15.64;38.42
73870;BME280;64924;42.140;24.762;2023-04-03T09:33:51;98979.75;;;15.64;38.69
73870;BME280;64924;42.140;24.762;2023-04-03T09:36:40;98982.75;;;15.62;38.53
73870;BME280;64924;42.140;24.762;2023-04-03T09:39:11;98955.38;;;15.22;38.79
73870;BME280;64924;42.140;24.762;2023-04-03T09:41:38;98984.16;;;15.25;39.26
73870;BME280;64924;42.140;24.762;2023-04-03T09:44:20;98975.47;;;15.28;39.71
73870;BME280;64924;42.140;24.762;2023-04-03T09:46:46;98988.63;;;15.14;39.95
73870;BME280;64924;42.140;24.762;2023-04-03T09:49:12;98967.56;;;15.15;40.02
73870;BME280;64924;42.140;24.762;2023-04-03T09:51:38;98959.59;;;15.13;39.94
73870;BME280;64924;42.140;24.762;2023-04-03T09:54:31;98957.63;;;15.25;39.98
73870;BME280;64924;42.140;24.762;2023-04-03T09:57:01;98939.88;;;14.99;40.04
73870;BME280;64924;42.140;24.762;2023-04-03T09:59:30;98956.16;;;15.06;40.61
73870;BME280;64924;42.140;24.762;2023-04-03T10:02:03;98967.16;;;15.23;41.39
73870;BME280;64924;42.140;24.762;2023-04-03T10:04:40;98973.56;;;15.28;42.16
73870;BME280;64924;42.140;24.762;2023-04-03T10:12:42;98965.25;;;15.23;42.95
73870;BME280;64924;42.140;24.762;2023-04-03T10:15:16;98968.09;;;15.28;43.55
73870;BME280;64924;42.140;24.762;2023-04-03T10:18:10;98952.81;;;15.16;43.64
73870;BME280;64924;42.140;24.762;2023-04-03T10:20:48;98944.97;;;15.08;43.53
73870;BME280;64924;42.140;24.762;2023-04-03T10:23:27;98952.66;;;15.22;43.73
73870;BME280;64924;42.140;24.762;2023-04-03T10:37:21;98947.84;;;15.01;44.79
73870;BME280;64924;42.140;24.762;2023-04-03T10:43:27;98961.22;;;15.26;45.40
73870;BME280;64924;42.140;24.762;2023-04-03T10:51:22;98970.66;;;15.18;46.17
73870;BME280;64924;42.140;24.762;2023-04-03T10:53:57;98963.53;;;15.05;46.27
73870;BME280;64924;42.140;24.762;2023-04-03T11:01:48;98964.25;;;15.01;46.81
73870;BME280;64924;42.140;24.762;2023-04-03T11:04:16;98976.38;;;15.05;48.29
73870;BME280;64924;42.140;24.762;2023-04-03T11:09:27;98986.00;;;15.19;48.54
73870;BME280;64924;42.140;24.762;2023-04-03T11:12:02;98981.50;;;15.13;48.55
73870;BME280;64924;42.140;24.762;2023-04-03T11:14:32;98975.66;;;15.10;48.63
73870;BME280;64924;42.140;24.762;2023-04-03T11:19:39;98958.34;;;14.92;49.86
73870;BME280;64924;42.140;24.762;2023-04-03T11:22:16;98973.75;;;15.10;50.71
73870;BME280;64924;42.140;24.762;2023-04-03T11:27:46;98921.41;;;14.78;50.76
73870;BME280;64924;42.140;24.762;2023-04-03T11:30:31;98926.59;;;14.91;51.17
73870;BME280;64924;42.140;24.762;2023-04-03T11:35:55;98961.84;;;15.16;51.19
73870;BME280;64924;42.140;24.762;2023-04-03T11:38:29;98950.75;;;15.23;51.32
73870;BME280;64924;42.140;24.762;2023-04-03T11:40:57;98937.06;;;15.23;51.31
73870;BME280;64924;42.140;24.762;2023-04-03T11:43:28;98907.78;;;15.23;50.86
73870;BME280;64924;42.140;24.762;2023-04-03T11:46:05;98938.88;;;15.46;50.15
73870;BME280;64924;42.140;24.762;2023-04-03T11:53:54;98952.75;;;15.27;51.33
73870;BME280;64924;42.140;24.762;2023-04-03T12:01:48;98937.91;;;14.83;53.29
73870;BME280;64924;42.140;24.762;2023-04-03T12:04:16;98941.97;;;14.57;54.64
73870;BME280;64924;42.140;24.762;2023-04-03T12:09:54;98920.00;;;14.64;55.33
73870;BME280;64924;42.140;24.762;2023-04-03T12:15:12;98916.66;;;14.50;55.94
73870;BME280;64924;42.140;24.762;2023-04-03T12:17:38;98916.06;;;14.25;56.06
73870;BME280;64924;42.140;24.762;2023-04-03T12:21:08;98923.19;;;14.26;56.79
73870;BME280;64924;42.140;24.762;2023-04-03T12:23:29;98915.94;;;14.20;57.69
73870;BME280;64924;42.140;24.762;2023-04-03T12:26:21;98917.84;;;14.31;58.27
73870;BME280;64924;42.140;24.762;2023-04-03T12:28:48;98907.19;;;14.06;59.26
73870;BME280;64924;42.140;24.762;2023-04-03T12:31:16;98911.09;;;14.10;58.80
73870;BME280;64924;42.140;24.762;2023-04-03T12:36:15;98904.22;;;14.08;60.04
73870;BME280;64924;42.140;24.762;2023-04-03T12:39:05;98897.91;;;14.07;59.94
73870;BME280;64924;42.140;24.762;2023-04-03T12:41:41;98893.84;;;13.86;60.92
73870;BME280;64924;42.140;24.762;2023-04-03T12:44:42;98909.75;;;14.13;60.79
73870;BME280;64924;42.140;24.762;2023-04-03T12:47:24;98870.09;;;13.87;61.01
73870;BME280;64924;42.140;24.762;2023-04-03T12:49:51;98883.44;;;14.07;60.94
73870;BME280;64924;42.140;24.762;2023-04-03T12:52:35;98895.88;;;14.49;59.73
73870;BME280;64924;42.140;24.762;2023-04-03T12:55:07;98893.16;;;14.26;60.21
73870;BME280;64924;42.140;24.762;2023-04-03T12:57:42;98892.91;;;14.16;61.64
73870;BME280;64924;42.140;24.762;2023-04-03T13:00:27;98884.34;;;14.24;61.03
73870;BME280;64924;42.140;24.762;2023-04-03T13:02:53;98884.13;;;14.25;60.68
73870;BME280;64924;42.140;24.762;2023-04-03T13:05:21;98853.59;;;14.17;60.38
73870;BME280;64924;42.140;24.762;2023-04-03T13:07:58;98880.44;;;14.31;61.00
73870;BME280;64924;42.140;24.762;2023-04-03T13:10:23;98881.97;;;14.27;60.93
73870;BME280;64924;42.140;24.762;2023-04-03T13:12:50;98882.22;;;14.26;60.79
73870;BME280;64924;42.140;24.762;2023-04-03T13:15:23;98872.50;;;14.42;60.75
73870;BME280;64924;42.140;24.762;2023-04-03T13:17:50;98859.88;;;14.41;60.96
73870;BME280;64924;42.140;24.762;2023-04-03T13:20:27;98859.88;;;14.52;60.90
73870;BME280;64924;42.140;24.762;2023-04-03T13:23:05;98866.16;;;14.53;61.38
73870;BME280;64924;42.140;24.762;2023-04-03T13:25:35;98865.50;;;14.46;61.74
73870;BME280;64924;42.140;24.762;2023-04-03T13:28:05;98863.44;;;14.53;62.28
73870;BME280;64924;42.140;24.762;2023-04-03T13:30:35;98864.38;;;14.58;61.88
73870;BME280;64924;42.140;24.762;2023-04-03T13:33:04;98862.25;;;14.37;61.78
73870;BME280;64924;42.140;24.762;2023-04-03T13:35:39;98858.38;;;14.10;62.18
73870;BME280;64924;42.140;24.762;2023-04-03T13:38:23;98857.66;;;13.91;62.61
73870;BME280;64924;42.140;24.762;2023-04-03T13:40:53;98853.00;;;13.68;63.46
73870;BME280;64924;42.140;24.762;2023-04-03T13:43:34;98857.88;;;13.78;63.74
73870;BME280;64924;42.140;24.762;2023-04-03T13:46:22;98840.78;;;13.70;63.81
73870;BME280;64924;42.140;24.762;2023-04-03T13:48:52;98831.84;;;13.52;64.46
73870;BME280;64924;42.140;24.762;2023-04-03T13:51:29;98791.63;;;13.35;64.67
73870;BME280;64924;42.140;24.762;2023-04-03T13:53:58;98814.41;;;13.53;64.84
73870;BME280;64924;42.140;24.762;2023-04-03T13:59:25;98803.50;;;13.64;65.31
73870;BME280;64924;42.140;24.762;2023-04-03T14:04:46;98795.91;;;13.55;66.07
73870;BME280;64924;42.140;24.762;2023-04-03T14:07:14;98794.00;;;13.55;66.24
73870;BME280;64924;42.140;24.762;2023-04-03T14:09:41;98754.38;;;13.29;66.45
73870;BME280;64924;42.140;24.762;2023-04-03T14:12:34;98783.56;;;13.64;66.19
73870;BME280;64924;42.140;24.762;2023-04-03T14:15:03;98783.19;;;13.49;66.27
73870;BME280;64924;42.140;24.762;2023-04-03T14:17:30;98792.91;;;13.45;66.55
73870;BME280;64924;42.140;24.762;2023-04-03T14:19:57;98787.34;;;13.51;65.99
73870;BME280;64924;42.140;24.762;2023-04-03T14:22:30;98767.16;;;13.41;65.82
73870;BME280;64924;42.140;24.762;2023-04-03T14:24:56;98792.59;;;13.53;65.97
73870;BME280;64924;42.140;24.762;2023-04-03T14:27:26;98800.69;;;13.71;65.78